Time;durP1;ratioP1;P1;durP2;ratioP2;P2;SDS_P1;SDS_P2;PMS_P1;PMS_P2;Temp;Humidity;BMP_temperature;BMP_pressure;BME280_temperature;BME280_humidity;BME280_pressure;Samples;Min_cycle;Max_cycle;Signal;HPM_P1;HPM_P2
2021/07/16 00:01:22;;;;;;;;;12.25;10.75;;;;;-146.80;100.00;64830.25;5075905;27;45498;-64
2021/07/16 00:03:47;;;;;;;;;14.00;13.50;;;;;-146.80;100.00;64830.25;5075688;28;45511;-64
2021/07/16 00:06:13;;;;;;;;;12.50;12.50;;;;;-146.80;100.00;64830.25;5075287;27;46371;-64
2021/07/16 00:08:38;;;;;;;;;15.25;12.25;;;;;-146.80;100.00;64830.25;5075270;27;45428;-67
2021/07/16 00:11:04;;;;;;;;;15.75;14.25;;;;;-146.80;100.00;64830.25;5073947;28;45477;-65
2021/07/16 00:13:29;;;;;;;;;18.50;14.75;;;;;-146.80;100.00;64830.25;5075795;27;45353;-64
2021/07/16 00:15:55;;;;;;;;;16.75;12.25;;;;;-146.80;100.00;64830.25;5075248;27;46152;-63
2021/07/16 00:18:20;;;;;;;;;17.00;13.25;;;;;-146.80;100.00;64830.25;5075613;27;45397;-65
2021/07/16 00:20:47;;;;;;;;;14.25;14.25;;;;;-146.80;100.00;64830.25;5075302;28;45437;-63
2021/07/16 00:23:13;;;;;;;;;10.00;10.00;;;;;-146.80;100.00;64830.25;5075449;27;45631;-64
2021/07/16 00:25:38;;;;;;;;;21.75;20.25;;;;;-146.80;100.00;64830.25;5075096;28;45314;-64
2021/07/16 00:28:04;;;;;;;;;14.00;13.00;;;;;-146.80;100.00;64830.25;5073945;28;45445;-65
2021/07/16 00:30:30;;;;;;;;;15.75;11.50;;;;;-146.80;100.00;64830.25;5075615;28;45410;-64
2021/07/16 00:32:56;;;;;;;;;14.50;12.00;;;;;-146.80;100.00;64830.25;5077603;28;45396;-64
2021/07/16 00:35:21;;;;;;;;;17.00;14.00;;;;;-146.80;100.00;64830.25;5077210;28;46950;-65
2021/07/16 00:37:47;;;;;;;;;13.50;11.00;;;;;-146.80;100.00;64830.25;5077157;28;45287;-64
2021/07/16 00:40:13;;;;;;;;;16.00;12.75;;;;;-146.80;100.00;64830.25;5078456;27;45474;-65
2021/07/16 00:42:39;;;;;;;;;12.25;10.00;;;;;-146.80;100.00;64830.25;5078857;27;45659;-63
2021/07/16 00:45:10;;;;;;;;;11.75;10.25;;;;;-146.80;100.00;64830.25;5078272;27;46094;-64
2021/07/16 00:47:36;;;;;;;;;19.00;13.25;;;;;-146.80;100.00;64830.25;5077023;28;45389;-65
2021/07/16 00:50:03;;;;;;;;;12.75;12.00;;;;;-146.80;100.00;64830.25;5077227;28;45413;-65
2021/07/16 00:52:28;;;;;;;;;12.25;10.00;;;;;-146.80;100.00;64830.25;5078460;27;45455;-65
2021/07/16 00:54:54;;;;;;;;;15.75;13.50;;;;;-146.80;100.00;64830.25;5078147;28;45783;-67
2021/07/16 00:57:19;;;;;;;;;19.50;15.00;;;;;-146.80;100.00;64830.25;5078617;27;45264;-66
2021/07/16 00:59:45;;;;;;;;;18.00;13.75;;;;;-146.80;100.00;64830.25;5078229;27;45496;-64
2021/07/16 01:02:12;;;;;;;;;12.50;12.50;;;;;-146.80;100.00;64830.25;5078366;27;45544;-65
2021/07/16 01:04:37;;;;;;;;;11.75;10.00;;;;;-146.80;100.00;64830.25;5078176;28;46153;-67
2021/07/16 01:07:04;;;;;;;;;12.75;12.00;;;;;-146.80;100.00;64830.25;5077904;27;45268;-64
2021/07/16 01:09:29;;;;;;;;;10.50;10.50;;;;;-146.80;100.00;64830.25;5078224;27;45318;-65
2021/07/16 01:11:55;;;;;;;;;10.75;7.75;;;;;-146.80;100.00;64830.25;5078390;28;45366;-65
2021/07/16 01:14:21;;;;;;;;;10.00;9.25;;;;;-146.80;100.00;64830.25;5078272;27;45314;-65
2021/07/16 01:16:47;;;;;;;;;12.50;11.25;;;;;-146.80;100.00;64830.25;5078123;28;45345;-65
2021/07/16 01:19:21;;;;;;;;;9.00;8.75;;;;;-146.80;100.00;64830.25;5077916;27;45451;-65
2021/07/16 01:21:48;;;;;;;;;10.25;8.75;;;;;-146.80;100.00;64830.25;5077970;27;45475;-65
2021/07/16 01:24:16;;;;;;;;;11.75;11.25;;;;;-146.80;100.00;64830.25;5077745;27;46846;-67
2021/07/16 01:26:42;;;;;;;;;13.50;12.50;;;;;-146.80;100.00;64830.25;5077701;27;45406;-67
2021/07/16 01:29:10;;;;;;;;;13.25;11.75;;;;;-146.80;100.00;64830.25;5078020;28;45340;-65
2021/07/16 01:31:36;;;;;;;;;13.25;11.25;;;;;-146.80;100.00;64830.25;5077786;27;45448;-66
2021/07/16 01:34:01;;;;;;;;;9.75;7.75;;;;;-146.80;100.00;64830.25;5077446;27;46192;-66
2021/07/16 01:36:27;;;;;;;;;14.25;11.25;;;;;-146.80;100.00;64830.25;5077480;27;45409;-63
2021/07/16 01:38:52;;;;;;;;;11.00;9.75;;;;;-146.80;100.00;64830.25;5078189;27;45585;-64
2021/07/16 01:41:18;;;;;;;;;10.50;10.25;;;;;-146.80;100.00;64830.25;5078008;27;45279;-65
2021/07/16 01:43:43;;;;;;;;;15.75;12.00;;;;;-146.80;100.00;64830.25;5077407;27;46338;-64
2021/07/16 01:46:08;;;;;;;;;9.00;8.00;;;;;-146.80;100.00;64830.25;5093191;27;45416;-65
2021/07/16 01:48:35;;;;;;;;;10.25;9.00;;;;;-146.80;100.00;64830.25;5077372;27;45380;-65
2021/07/16 01:51:00;;;;;;;;;10.00;9.00;;;;;-146.80;100.00;64830.25;5077595;27;45523;-65
2021/07/16 01:53:26;;;;;;;;;11.50;8.50;;;;;-146.80;100.00;64830.25;5075840;28;47855;-65
2021/07/16 01:55:51;;;;;;;;;11.25;11.25;;;;;-146.80;100.00;64830.25;5077627;28;45211;-65
2021/07/16 01:58:17;;;;;;;;;12.00;10.00;;;;;-146.80;100.00;64830.25;5077518;27;45412;-64
2021/07/16 02:00:48;;;;;;;;;13.00;10.00;;;;;-146.80;100.00;64830.25;5077596;28;45547;-65
2021/07/16 02:03:16;;;;;;;;;13.75;10.00;;;;;-146.80;100.00;64830.25;5077122;27;46243;-64
2021/07/16 02:05:44;;;;;;;;;16.50;11.25;;;;;-146.80;100.00;64830.25;5076985;27;45242;-65
2021/07/16 02:08:15;;;;;;;;;11.50;10.25;;;;;-146.80;100.00;64830.25;5077195;27;45248;-65
2021/07/16 02:10:47;;;;;;;;;11.50;9.00;;;;;-146.80;100.00;64830.25;5077271;27;45510;-66
2021/07/16 02:13:13;;;;;;;;;10.25;8.75;;;;;-146.80;100.00;64830.25;5075408;28;48280;-64
2021/07/16 02:15:41;;;;;;;;;13.00;12.50;;;;;-146.80;100.00;64830.25;5075788;28;45323;-64
2021/07/16 02:18:06;;;;;;;;;10.00;9.25;;;;;-146.80;100.00;64830.25;5076935;27;45237;-64
2021/07/16 02:20:35;;;;;;;;;12.00;10.50;;;;;-146.80;100.00;64830.25;5077005;27;45588;-64
2021/07/16 02:23:12;;;;;;;;;12.75;11.25;;;;;-146.80;100.00;64830.25;5076934;28;46263;-65
2021/07/16 02:25:38;;;;;;;;;10.75;9.75;;;;;-146.80;100.00;64830.25;5077095;28;45976;-65
2021/07/16 02:28:07;;;;;;;;;10.50;10.50;;;;;-146.80;100.00;64830.25;5076873;27;45502;-64
2021/07/16 02:30:33;;;;;;;;;11.75;9.50;;;;;-146.80;100.00;64830.25;5076857;27;45180;-66
2021/07/16 02:33:00;;;;;;;;;7.50;5.75;;;;;-146.80;100.00;64830.25;5075209;28;48031;-64
2021/07/16 02:35:26;;;;;;;;;10.00;9.75;;;;;-146.80;100.00;64830.25;5077204;28;45249;-67
2021/07/16 02:37:52;;;;;;;;;7.50;6.25;;;;;-146.80;100.00;64830.25;5075389;28;45457;-65
2021/07/16 02:40:18;;;;;;;;;10.00;10.00;;;;;-146.80;100.00;64830.25;5075379;28;45616;-65
2021/07/16 02:42:44;;;;;;;;;10.50;9.25;;;;;-146.80;100.00;64830.25;5076746;27;45837;-64
2021/07/16 02:45:16;;;;;;;;;9.50;9.00;;;;;-146.80;100.00;64830.25;5076591;27;46182;-66
2021/07/16 02:47:42;;;;;;;;;9.25;9.25;;;;;-146.80;100.00;64830.25;5076377;27;45351;-66
2021/07/16 02:50:11;;;;;;;;;8.75;8.75;;;;;-146.80;100.00;64830.25;5075396;28;45334;-64
2021/07/16 02:52:36;;;;;;;;;8.00;7.50;;;;;-146.80;100.00;64830.25;5075761;28;48204;-63
2021/07/16 02:55:02;;;;;;;;;8.00;8.00;;;;;-146.80;100.00;64830.25;5076215;27;45392;-65
2021/07/16 02:57:28;;;;;;;;;10.25;7.75;;;;;-146.80;100.00;64830.25;5076849;27;45373;-66
2021/07/16 02:59:53;;;;;;;;;10.00;8.75;;;;;-146.80;100.00;64830.25;5076557;27;45731;-65
2021/07/16 03:02:19;;;;;;;;;9.00;7.50;;;;;-146.80;100.00;64830.25;5074752;28;48001;-66
2021/07/16 03:04:46;;;;;;;;;9.75;8.00;;;;;-146.80;100.00;64830.25;5076377;27;45305;-67
2021/07/16 03:07:12;;;;;;;;;8.75;8.25;;;;;-146.80;100.00;64830.25;5076412;27;45439;-67
2021/07/16 03:09:38;;;;;;;;;9.00;8.00;;;;;-146.80;100.00;64830.25;5076565;27;45424;-65
2021/07/16 03:12:04;;;;;;;;;10.50;8.75;;;;;-146.80;100.00;64830.25;5076200;27;45400;-64
2021/07/16 03:14:30;;;;;;;;;12.25;10.00;;;;;-146.80;100.00;64830.25;5076759;27;45345;-64
2021/07/16 03:16:55;;;;;;;;;8.50;7.00;;;;;-146.80;100.00;64830.25;5075456;28;45431;-65
2021/07/16 03:19:21;;;;;;;;;9.50;9.50;;;;;-146.80;100.00;64830.25;5076663;27;45497;-64
2021/07/16 03:21:47;;;;;;;;;11.25;8.50;;;;;-146.80;100.00;64830.25;5076123;27;45264;-64
2021/07/16 03:24:12;;;;;;;;;9.50;7.75;;;;;-146.80;100.00;64830.25;5074783;28;45516;-63
2021/07/16 03:26:38;;;;;;;;;9.00;7.75;;;;;-146.80;100.00;64830.25;5076377;27;45231;-64
2021/07/16 03:29:04;;;;;;;;;12.50;9.25;;;;;-146.80;100.00;64830.25;5076351;27;45290;-63
2021/07/16 03:31:30;;;;;;;;;7.25;7.25;;;;;-146.80;100.00;64830.25;5075014;28;47447;-64
2021/07/16 03:33:55;;;;;;;;;8.00;7.00;;;;;-146.80;100.00;64830.25;5076215;27;45598;-63
2021/07/16 03:36:20;;;;;;;;;5.00;4.00;;;;;-146.80;100.00;64830.25;5076262;27;45298;-64
2021/07/16 03:38:47;;;;;;;;;8.25;7.00;;;;;-146.80;100.00;64830.25;5076406;27;45670;-65
2021/07/16 03:41:13;;;;;;;;;8.00;7.75;;;;;-146.80;100.00;64830.25;5075742;28;45313;-64
2021/07/16 03:43:39;;;;;;;;;10.75;9.25;;;;;-146.80;100.00;64830.25;5075802;27;45268;-64
2021/07/16 03:46:04;;;;;;;;;13.00;9.00;;;;;-146.80;100.00;64830.25;5076027;27;45413;-64
2021/07/16 03:48:32;;;;;;;;;10.25;8.25;;;;;-146.80;100.00;64830.25;5076305;27;45594;-64
2021/07/16 03:50:57;;;;;;;;;6.25;4.50;;;;;-146.80;100.00;64830.25;5076299;27;45311;-64
2021/07/16 03:53:22;;;;;;;;;5.00;4.75;;;;;-146.80;100.00;64830.25;5075815;27;45429;-64
2021/07/16 03:55:48;;;;;;;;;8.25;8.00;;;;;-146.80;100.00;64830.25;5075805;27;45455;-64
2021/07/16 03:58:13;;;;;;;;;8.25;7.00;;;;;-146.80;100.00;64830.25;5076066;27;45233;-64
2021/07/16 04:00:39;;;;;;;;;8.75;6.75;;;;;-146.80;100.00;64830.25;5075557;27;45337;-65
2021/07/16 04:03:05;;;;;;;;;10.00;7.00;;;;;-146.80;100.00;64830.25;5075554;28;45241;-63
2021/07/16 04:05:31;;;;;;;;;8.75;8.25;;;;;-146.80;100.00;64830.25;5077942;27;45460;-67
2021/07/16 04:08:05;;;;;;;;;6.00;5.50;;;;;-146.80;100.00;64830.25;5079359;27;45552;-64
2021/07/16 04:10:32;;;;;;;;;7.50;4.75;;;;;-146.80;100.00;64830.25;5079099;27;47153;-64
2021/07/16 04:13:03;;;;;;;;;8.75;7.00;;;;;-146.80;100.00;64830.25;5078017;28;45461;-65
2021/07/16 04:15:28;;;;;;;;;10.50;7.00;;;;;-146.80;100.00;64830.25;5079562;27;45283;-65
2021/07/16 04:17:56;;;;;;;;;8.75;7.00;;;;;-146.80;100.00;64830.25;5079377;27;45285;-66
2021/07/16 04:20:22;;;;;;;;;8.75;8.75;;;;;-146.80;100.00;64830.25;5078713;27;45299;-66
2021/07/16 04:22:48;;;;;;;;;8.00;6.00;;;;;-146.80;100.00;64830.25;5078847;27;45430;-65
2021/07/16 04:25:16;;;;;;;;;7.00;6.75;;;;;-146.80;100.00;64830.25;5079077;27;45356;-65
2021/07/16 04:27:42;;;;;;;;;7.50;7.50;;;;;-146.80;100.00;64830.25;5079254;27;45518;-64
2021/07/16 04:30:09;;;;;;;;;8.00;5.75;;;;;-146.80;100.00;64830.25;5078646;27;47094;-64
2021/07/16 04:32:34;;;;;;;;;5.25;5.25;;;;;-146.80;100.00;64830.25;5078782;27;45275;-65
2021/07/16 04:35:00;;;;;;;;;9.50;7.00;;;;;-146.80;100.00;64830.25;5077834;28;45423;-65
2021/07/16 04:37:25;;;;;;;;;12.25;6.00;;;;;-146.80;100.00;64830.25;5094853;27;45335;-67
2021/07/16 04:39:50;;;;;;;;;6.75;6.25;;;;;-146.80;100.00;64830.25;5094248;27;45864;-66
2021/07/16 04:42:16;;;;;;;;;8.00;8.00;;;;;-146.80;100.00;64830.25;5078580;27;45264;-66
2021/07/16 04:44:41;;;;;;;;;8.75;6.00;;;;;-146.80;100.00;64830.25;5078882;27;45352;-65
2021/07/16 04:47:07;;;;;;;;;7.25;7.25;;;;;-146.80;100.00;64830.25;5078945;27;45370;-66
2021/07/16 04:49:32;;;;;;;;;8.25;7.25;;;;;-146.80;100.00;64830.25;5078919;27;46542;-66
2021/07/16 04:52:00;;;;;;;;;6.25;6.25;;;;;-146.80;100.00;64830.25;5078495;27;45398;-65
2021/07/16 04:54:25;;;;;;;;;9.00;7.25;;;;;-146.80;100.00;64830.25;5078452;27;45290;-65
2021/07/16 04:56:51;;;;;;;;;4.50;4.50;;;;;-146.80;100.00;64830.25;5078752;27;45247;-66
2021/07/16 04:59:16;;;;;;;;;7.25;7.25;;;;;-146.80;100.00;64830.25;5078388;27;45285;-69
2021/07/16 05:01:41;;;;;;;;;7.25;7.25;;;;;-146.80;100.00;64830.25;5078167;27;45197;-64
2021/07/16 05:04:07;;;;;;;;;12.75;8.50;;;;;-146.80;100.00;64830.25;5078582;27;45323;-67
2021/07/16 05:06:33;;;;;;;;;7.50;5.75;;;;;-146.80;100.00;64830.25;5078969;27;45430;-66
2021/07/16 05:08:58;;;;;;;;;6.75;6.75;;;;;-146.80;100.00;64830.25;5078019;27;45177;-65
2021/07/16 05:11:24;;;;;;;;;9.00;9.00;;;;;-146.80;100.00;64830.25;5078219;27;45247;-64
2021/07/16 05:13:49;;;;;;;;;9.75;7.25;;;;;-146.80;100.00;64830.25;5078466;28;45377;-65
2021/07/16 05:16:16;;;;;;;;;7.25;6.50;;;;;-146.80;100.00;64830.25;5078108;27;45198;-65
2021/07/16 05:18:42;;;;;;;;;10.75;6.25;;;;;-146.80;100.00;64830.25;5076621;28;47491;-64
2021/07/16 05:21:09;;;;;;;;;10.00;8.25;;;;;-146.80;100.00;64830.25;5077824;27;45368;-65
2021/07/16 05:23:35;;;;;;;;;9.00;8.25;;;;;-146.80;100.00;64830.25;5078348;27;45418;-65
2021/07/16 05:26:01;;;;;;;;;7.75;7.25;;;;;-146.80;100.00;64830.25;5078219;27;45467;-64
2021/07/16 05:28:27;;;;;;;;;10.25;7.50;;;;;-146.80;100.00;64830.25;5077831;27;45291;-67
2021/07/16 05:30:53;;;;;;;;;9.00;7.00;;;;;-146.80;100.00;64830.25;5077889;27;45278;-66
2021/07/16 05:33:20;;;;;;;;;9.50;7.00;;;;;-146.80;100.00;64830.25;5078214;27;45230;-64
2021/07/16 05:35:46;;;;;;;;;7.00;7.00;;;;;-146.80;100.00;64830.25;5078086;27;45542;-64
2021/07/16 05:38:12;;;;;;;;;8.00;6.25;;;;;-146.80;100.00;64830.25;5076188;28;47118;-65
2021/07/16 05:40:38;;;;;;;;;8.00;7.00;;;;;-146.80;100.00;64830.25;5078038;27;45322;-64
2021/07/16 05:43:06;;;;;;;;;6.75;6.75;;;;;-146.80;100.00;64830.25;5078178;27;45386;-66
2021/07/16 05:45:32;;;;;;;;;7.50;6.25;;;;;-146.80;100.00;64830.25;5077972;27;45590;-66
2021/07/16 05:47:59;;;;;;;;;7.25;6.00;;;;;-146.80;100.00;64830.25;5077276;27;46185;-67
2021/07/16 05:50:25;;;;;;;;;7.50;7.00;;;;;-146.80;100.00;64830.25;5077229;27;45286;-64
2021/07/16 05:52:50;;;;;;;;;7.75;6.00;;;;;-146.80;100.00;64830.25;5077695;27;45543;-64
2021/07/16 05:55:16;;;;;;;;;5.25;5.25;;;;;-146.80;100.00;64830.25;5077557;27;45742;-62
2021/07/16 05:57:41;;;;;;;;;8.25;8.00;;;;;-146.80;100.00;64830.25;5077286;27;45453;-65
2021/07/16 06:00:07;;;;;;;;;6.25;6.25;;;;;-146.80;100.00;64830.25;5076291;27;45337;-64
2021/07/16 06:02:33;;;;;;;;;8.00;6.00;;;;;-146.80;100.00;64830.25;5077377;27;45428;-65
2021/07/16 06:04:58;;;;;;;;;7.25;6.00;;;;;-146.80;100.00;64830.25;5093167;27;45556;-64
2021/07/16 06:07:24;;;;;;;;;5.00;4.00;;;;;-146.80;100.00;64830.25;5077137;27;45832;-64
2021/07/16 06:09:49;;;;;;;;;8.50;7.25;;;;;-146.80;100.00;64830.25;5075911;28;45703;-64
2021/07/16 06:12:16;;;;;;;;;7.00;5.50;;;;;-146.80;100.00;64830.25;5077348;27;45342;-67
2021/07/16 06:14:42;;;;;;;;;8.00;6.00;;;;;-146.80;100.00;64830.25;5076113;27;45469;-63
2021/07/16 06:17:08;;;;;;;;;6.75;5.00;;;;;-146.80;100.00;64830.25;5077303;27;45392;-65
2021/07/16 06:19:34;;;;;;;;;8.00;6.00;;;;;-146.80;100.00;64830.25;5077133;27;45704;-64
2021/07/16 06:21:59;;;;;;;;;7.25;6.75;;;;;-146.80;100.00;64830.25;5077089;27;45189;-64
2021/07/16 06:24:24;;;;;;;;;11.00;10.50;;;;;-146.80;100.00;64830.25;5077370;27;45177;-65
2021/07/16 06:26:50;;;;;;;;;7.00;5.50;;;;;-146.80;100.00;64830.25;5076789;27;46118;-62
2021/07/16 06:29:15;;;;;;;;;7.25;6.00;;;;;-146.80;100.00;64830.25;5076133;28;45261;-65
2021/07/16 06:31:41;;;;;;;;;6.75;5.25;;;;;-146.80;100.00;64830.25;5076894;27;45280;-63
2021/07/16 06:34:06;;;;;;;;;5.75;4.00;;;;;-146.80;100.00;64830.25;5077388;27;45423;-64
2021/07/16 06:36:32;;;;;;;;;5.00;5.00;;;;;-146.80;100.00;64830.25;5076524;28;45581;-66
2021/07/16 06:38:57;;;;;;;;;7.25;7.00;;;;;-146.80;100.00;64830.25;5075294;27;45479;-67
2021/07/16 06:41:22;;;;;;;;;6.00;5.00;;;;;-146.80;100.00;64830.25;5075272;28;45459;-64
2021/07/16 06:43:48;;;;;;;;;5.25;5.00;;;;;-146.80;100.00;64830.25;5074537;28;45486;-63
2021/07/16 06:46:14;;;;;;;;;6.50;4.00;;;;;-146.80;100.00;64830.25;5075988;28;45321;-64
2021/07/16 06:48:42;;;;;;;;;5.25;4.00;;;;;-146.80;100.00;64830.25;5076511;28;45429;-65
2021/07/16 06:51:09;;;;;;;;;4.00;2.25;;;;;-146.80;100.00;64830.25;5077018;28;45388;-64
2021/07/16 06:53:34;;;;;;;;;5.25;5.00;;;;;-146.80;100.00;64830.25;5076817;28;45424;-65
2021/07/16 06:55:59;;;;;;;;;5.50;5.00;;;;;-146.80;100.00;64830.25;5076352;28;45427;-64
2021/07/16 06:58:24;;;;;;;;;4.25;4.25;;;;;-146.80;100.00;64830.25;5075012;28;45425;-64
2021/07/16 07:00:50;;;;;;;;;1.25;1.00;;;;;-146.80;100.00;64830.25;5074804;28;45330;-64
2021/07/16 07:03:16;;;;;;;;;5.50;5.00;;;;;-146.80;100.00;64830.25;5075611;28;45623;-64
2021/07/16 07:05:42;;;;;;;;;5.75;5.75;;;;;-146.80;100.00;64830.25;5075555;27;46300;-66
2021/07/16 07:08:07;;;;;;;;;4.00;4.00;;;;;-146.80;100.00;64830.25;5075682;27;45577;-67
2021/07/16 07:10:32;;;;;;;;;3.50;3.50;;;;;-146.80;100.00;64830.25;5072192;27;45492;-66
2021/07/16 07:12:58;;;;;;;;;7.50;7.00;;;;;-146.80;100.00;64830.25;5074457;28;45582;-69
2021/07/16 07:15:23;;;;;;;;;5.00;3.00;;;;;-146.80;100.00;64830.25;5076209;28;45929;-67
2021/07/16 07:17:49;;;;;;;;;4.75;4.75;;;;;-146.80;100.00;64830.25;5076253;28;45329;-66
2021/07/16 07:20:14;;;;;;;;;2.75;2.75;;;;;-146.80;100.00;64830.25;5076190;28;45858;-64
2021/07/16 07:22:40;;;;;;;;;4.50;3.00;;;;;-146.80;100.00;64830.25;5075268;28;45580;-67
2021/07/16 07:25:07;;;;;;;;;6.00;5.00;;;;;-146.80;100.00;64830.25;5076064;28;46215;-65
2021/07/16 07:27:33;;;;;;;;;3.50;3.50;;;;;-146.80;100.00;64830.25;5076297;28;45773;-66
2021/07/16 07:29:59;;;;;;;;;2.50;2.50;;;;;-146.80;100.00;64830.25;5076034;28;45369;-69
2021/07/16 07:32:25;;;;;;;;;4.00;4.00;;;;;-146.80;100.00;64830.25;5076547;28;45417;-67
2021/07/16 07:34:50;;;;;;;;;3.25;3.00;;;;;-146.80;100.00;64830.25;5076022;28;46241;-68
2021/07/16 07:37:16;;;;;;;;;2.00;2.00;;;;;-146.80;100.00;64830.25;5076301;28;45312;-66
2021/07/16 07:39:42;;;;;;;;;1.75;1.75;;;;;-146.80;100.00;64830.25;5075042;28;45460;-68
2021/07/16 07:42:11;;;;;;;;;2.50;2.50;;;;;-146.80;100.00;64830.25;5076037;28;45372;-68
2021/07/16 07:44:36;;;;;;;;;3.50;2.75;;;;;-146.80;100.00;64830.25;5076021;28;47197;-67
2021/07/16 07:47:02;;;;;;;;;3.75;3.00;;;;;-146.80;100.00;64830.25;5075609;28;45215;-68
2021/07/16 07:49:28;;;;;;;;;2.00;2.00;;;;;-146.80;100.00;64830.25;5075917;28;45383;-67
2021/07/16 07:51:54;;;;;;;;;6.00;4.00;;;;;-146.80;100.00;64830.25;5074859;28;45473;-67
2021/07/16 07:54:19;;;;;;;;;3.25;2.00;;;;;-146.80;100.00;64830.25;5075889;28;46074;-68
2021/07/16 07:56:45;;;;;;;;;2.75;2.75;;;;;-146.80;100.00;64830.25;5075758;28;45327;-68
2021/07/16 07:59:10;;;;;;;;;3.00;3.00;;;;;-146.80;100.00;64830.25;5076256;28;45371;-69
2021/07/16 08:01:35;;;;;;;;;2.00;1.25;;;;;-146.80;100.00;64830.25;5075909;28;45674;-69
2021/07/16 08:04:02;;;;;;;;;5.00;3.00;;;;;-146.80;100.00;64830.25;5074266;28;45496;-68
2021/07/16 08:06:27;;;;;;;;;3.75;3.25;;;;;-146.80;100.00;64830.25;5075510;28;45434;-67
2021/07/16 08:08:53;;;;;;;;;4.00;3.50;;;;;-146.80;100.00;64830.25;5074180;28;45429;-68
2021/07/16 08:11:19;;;;;;;;;2.75;2.50;;;;;-146.80;100.00;64830.25;5075778;28;45552;-66
2021/07/16 08:13:44;;;;;;;;;2.50;2.50;;;;;-146.80;100.00;64830.25;5075876;28;46250;-67
2021/07/16 08:16:10;;;;;;;;;2.00;1.50;;;;;-146.80;100.00;64830.25;5075537;28;45326;-65
2021/07/16 08:18:36;;;;;;;;;1.25;1.25;;;;;-146.80;100.00;64830.25;5075910;28;45444;-67
2021/07/16 08:21:01;;;;;;;;;2.00;2.00;;;;;-146.80;100.00;64830.25;5074415;28;45579;-68
2021/07/16 08:23:27;;;;;;;;;1.00;1.00;;;;;-146.80;100.00;64830.25;5075211;28;46104;-67
2021/07/16 08:25:52;;;;;;;;;2.25;2.00;;;;;-146.80;100.00;64830.25;5073683;27;45317;-68
2021/07/16 08:28:18;;;;;;;;;2.50;2.00;;;;;-146.80;100.00;64830.25;5075421;28;45441;-67
2021/07/16 08:30:43;;;;;;;;;6.00;3.25;;;;;-146.80;100.00;64830.25;5076137;28;45389;-66
2021/07/16 08:33:09;;;;;;;;;3.50;2.00;;;;;-146.80;100.00;64830.25;5075323;28;45327;-66
2021/07/16 08:35:35;;;;;;;;;3.50;2.50;;;;;-146.80;100.00;64830.25;5075421;28;45247;-65
2021/07/16 08:38:01;;;;;;;;;3.25;3.00;;;;;-146.80;100.00;64830.25;5074145;28;45328;-68
2021/07/16 08:40:26;;;;;;;;;3.00;3.00;;;;;-146.80;100.00;64830.25;5075522;28;45401;-65
2021/07/16 08:42:55;;;;;;;;;2.25;2.25;;;;;-146.80;100.00;64830.25;5075030;28;45383;-67
2021/07/16 08:45:21;;;;;;;;;5.00;3.00;;;;;-146.80;100.00;64830.25;5075598;28;45381;-69
2021/07/16 08:47:47;;;;;;;;;7.00;4.00;;;;;-146.80;100.00;64830.25;5074103;28;45341;-68
2021/07/16 08:50:14;;;;;;;;;3.25;3.25;;;;;-146.80;100.00;64830.25;5091180;27;45278;-68
2021/07/16 08:52:44;;;;;;;;;3.75;2.50;;;;;-146.80;100.00;64830.25;5078456;28;47052;-68
2021/07/16 08:55:09;;;;;;;;;2.50;2.50;;;;;-146.80;100.00;64830.25;5078275;28;45309;-67
2021/07/16 08:57:35;;;;;;;;;2.25;2.00;;;;;-146.80;100.00;64830.25;5078685;28;45368;-68
2021/07/16 09:00:01;;;;;;;;;3.00;3.00;;;;;-146.80;100.00;64830.25;5078652;28;45515;-68
2021/07/16 09:02:30;;;;;;;;;5.00;4.00;;;;;-146.80;100.00;64830.25;5078146;28;45470;-66
2021/07/16 09:05:00;;;;;;;;;3.75;2.25;;;;;-146.80;100.00;64830.25;5076940;28;45279;-65
2021/07/16 09:07:26;;;;;;;;;6.25;5.00;;;;;-146.80;100.00;64830.25;5078339;28;45268;-67
2021/07/16 09:10:09;;;;;;;;;4.00;4.00;;;;;-146.80;100.00;64830.25;5077151;28;45451;-68
2021/07/16 09:12:36;;;;;;;;;6.00;3.50;;;;;-146.80;100.00;64830.25;5078111;28;47089;-66
2021/07/16 09:15:14;;;;;;;;;4.25;4.25;;;;;-146.80;100.00;64830.25;5078366;28;45174;-65
2021/07/16 09:17:43;;;;;;;;;6.00;4.50;;;;;-146.80;100.00;64830.25;5078353;27;45252;-67
2021/07/16 09:20:21;;;;;;;;;5.50;5.50;;;;;-146.80;100.00;64830.25;5078509;28;45483;-66
2021/07/16 09:23:07;;;;;;;;;6.00;6.00;;;;;-146.80;100.00;64830.25;5078340;28;45393;-70
2021/07/16 09:25:32;;;;;;;;;4.50;3.75;;;;;-146.80;100.00;64830.25;5093426;27;45379;-66
2021/07/16 09:27:58;;;;;;;;;7.25;4.00;;;;;-146.80;100.00;64830.25;5076474;28;45366;-67
2021/07/16 09:30:25;;;;;;;;;5.00;5.00;;;;;-146.80;100.00;64830.25;5078398;28;45632;-67
2021/07/16 09:32:55;;;;;;;;;6.00;4.50;;;;;-146.80;100.00;64830.25;5076717;28;47169;-67
2021/07/16 09:35:34;;;;;;;;;7.50;5.00;;;;;-146.80;100.00;64830.25;5077852;28;45345;-67
2021/07/16 09:38:04;;;;;;;;;4.00;4.00;;;;;-146.80;100.00;64830.25;5078169;28;45270;-65
2021/07/16 09:40:34;;;;;;;;;5.25;4.25;;;;;-146.80;100.00;64830.25;5076713;27;45471;-68
2021/07/16 09:43:10;;;;;;;;;5.00;5.00;;;;;-146.80;100.00;64830.25;5076069;28;47678;-68
2021/07/16 09:45:36;;;;;;;;;4.25;4.25;;;;;-146.80;100.00;64830.25;5077937;28;45187;-67
2021/07/16 09:48:21;;;;;;;;;4.50;4.50;;;;;-146.80;100.00;64830.25;5077573;28;45405;-67
2021/07/16 09:50:47;;;;;;;;;5.75;5.00;;;;;-146.80;100.00;64830.25;5078238;27;45357;-68
2021/07/16 09:53:22;;;;;;;;;8.25;5.25;;;;;-146.80;100.00;64830.25;5076540;28;46895;-68
2021/07/16 09:55:48;;;;;;;;;7.00;4.75;;;;;-146.80;100.00;64830.25;5078131;28;45368;-67
2021/07/16 09:58:24;;;;;;;;;6.00;6.00;;;;;-146.80;100.00;64830.25;5077724;28;45496;-69
2021/07/16 10:00:51;;;;;;;;;16.75;10.50;;;;;-146.80;100.00;64830.25;5078125;28;45454;-68
2021/07/16 10:03:18;;;;;;;;;4.25;3.75;;;;;-146.80;100.00;64830.25;5076218;28;46161;-66
2021/07/16 10:05:44;;;;;;;;;6.50;6.00;;;;;-146.80;100.00;64830.25;5077268;28;45338;-68
2021/07/16 10:08:10;;;;;;;;;9.75;6.25;;;;;-146.80;100.00;64830.25;5077434;28;45299;-69
2021/07/16 10:10:36;;;;;;;;;7.50;5.50;;;;;-146.80;100.00;64830.25;5076414;28;45534;-64
2021/07/16 10:13:03;;;;;;;;;7.00;5.75;;;;;-146.80;100.00;64830.25;5076836;28;45436;-67
2021/07/16 10:15:32;;;;;;;;;8.25;7.00;;;;;-146.80;100.00;64830.25;5075363;27;45405;-67
2021/07/16 10:17:58;;;;;;;;;9.00;7.25;;;;;-146.80;100.00;64830.25;5092735;27;45307;-68
2021/07/16 10:20:23;;;;;;;;;6.50;6.00;;;;;-146.80;100.00;64830.25;5077041;28;45196;-67
2021/07/16 10:22:50;;;;;;;;;11.50;5.75;;;;;-146.80;100.00;64830.25;5075711;28;47125;-68
2021/07/16 10:25:17;;;;;;;;;8.00;7.00;;;;;-146.80;100.00;64830.25;5077068;28;45315;-67
2021/07/16 10:27:43;;;;;;;;;6.25;6.25;;;;;-146.80;100.00;64830.25;5077206;28;45471;-68
2021/07/16 10:30:12;;;;;;;;;7.50;7.00;;;;;-146.80;100.00;64830.25;5075605;28;45527;-66
2021/07/16 10:32:44;;;;;;;;;8.75;8.00;;;;;-146.80;100.00;64830.25;5075547;28;46000;-68
2021/07/16 10:35:23;;;;;;;;;14.75;10.25;;;;;-146.80;100.00;64830.25;5076667;28;45460;-67
2021/07/16 10:37:51;;;;;;;;;14.75;10.00;;;;;-146.80;100.00;64830.25;5077078;28;45428;-69
2021/07/16 10:40:46;;;;;;;;;11.25;9.50;;;;;-146.80;100.00;64830.25;5075376;28;45369;-68
2021/07/16 10:43:33;;;;;;;;;10.00;9.00;;;;;-146.80;100.00;64830.25;5067470;28;46814;-70
2021/07/16 10:46:00;;;;;;;;;17.75;17.00;;;;;-146.80;100.00;64830.25;5076390;28;45386;-69
2021/07/16 10:48:33;;;;;;;;;11.75;11.50;;;;;-146.80;100.00;64830.25;5076421;28;45343;-69
2021/07/16 10:51:00;;;;;;;;;16.00;13.00;;;;;-146.80;100.00;64830.25;5075501;28;45453;-67
2021/07/16 10:53:29;;;;;;;;;13.75;11.50;;;;;-146.80;100.00;64830.25;5076545;28;45392;-67
2021/07/16 10:55:54;;;;;;;;;11.50;10.25;;;;;-146.80;100.00;64830.25;5076751;28;45401;-69
2021/07/16 10:58:24;;;;;;;;;10.75;10.25;;;;;-146.80;100.00;64830.25;5076730;28;45419;-70
2021/07/16 11:00:51;;;;;;;;;24.25;19.50;;;;;-146.80;100.00;64830.25;5092377;27;45546;-68
2021/07/16 11:03:18;;;;;;;;;21.50;18.00;;;;;-146.80;100.00;64830.25;5076031;28;46557;-69